Tuesday, October 16, 2018, 6:52 AM EDT
Back to Local

KLWM, Lawrence Municipal Airport

Location: North Andover, MA, United States Lat: 42.717
Local Time: 6:52 AM EDT (10:52 GMT) Lon: -71.133
Time Zone: US/Eastern Elev: 147 ft

Show me the last for .
Show Decoded

2018-10-16 05:54 METAR KLWM 160954Z AUTO 27011G17KT 10SM CLR 09/M03 A2994 RMK AO2 SLP138
                 T00941033 =
2018-10-16 04:54 METAR KLWM 160854Z AUTO 28011G26KT 10SM CLR 11/M03 A2991 RMK AO2 PK WND
                 31033/0809 SLP128 T01061028 53038 =
2018-10-16 03:54 METAR KLWM 160754Z AUTO 28020G32KT 10SM CLR 12/M02 A2987 RMK AO2 PK WND
                 30036/0733 SLP114 T01221017 =
2018-10-16 02:54 METAR KLWM 160654Z AUTO 27018G33KT 10SM CLR 14/03 A2982 RMK AO2 PK WND
                 27033/0651 SLP097 T01390028 =
2018-10-16 01:54 METAR KLWM 160554Z AUTO 26009G18KT 10SM OVC100 15/09 A2980 RMK AO2 RAE34 SLP089
                 P0001 60005 T01500089 10206 20144 53034 =
2018-10-16 00:54 METAR KLWM 160454Z AUTO 27014G20KT 10SM -RA OVC055 16/11 A2977 RMK AO2 WSHFT
                 0341 RAE13B36 SLP079 P0000 T01560106 402060044 =
2018-10-15 23:58 METAR KLWM 160358Z AUTO 27014G32KT 7SM -RA FEW017 BKN035 OVC047 17/13 A2972 RMK
                 AO2 WSHFT 0341 P0000 T01720128 =
2018-10-15 23:54 METAR KLWM 160354Z AUTO 27015G35KT 6SM -RA FEW017 BKN025 OVC045 18/14 A2973 RMK
                 AO2 PK WND 26035/0346 WSHFT 0337 RAB38 PRESRR SLP065 P0004 T01780139 =
2018-10-15 22:54 METAR KLWM 160254Z AUTO 22010G20KT 10SM OVC024 20/16 A2970 RMK AO2 SLP056 60000
                 T02000156 58025 =
2018-10-15 21:54 METAR KLWM 160154Z 21013G22KT 10SM OVC023 19/16 A2972 RMK AO2 RAE54 SLP065 P0000
                 T01940156 =
2018-10-15 21:02 METAR KLWM 160102Z 21012G18KT 10SM -RA BKN016 OVC021 19/16 A2974 RMK AO2 P0000
                 T01890156 =
2018-10-15 20:54 METAR KLWM 160054Z 20010G16KT 10SM -RA BKN014 OVC021 19/16 A2975 RMK AO2 SLP075
                 P0000 T01890156 =
2018-10-15 20:01 METAR KLWM 160001Z 21008KT 10SM -RA OVC020 19/16 A2977 RMK AO2 P0000 T01890156 =
2018-10-15 19:54 METAR KLWM 152354Z 20007KT 10SM -RA BKN011 OVC018 19/16 A2977 RMK AO2
                 RAB2259E09B54 SLP081 P0000 60000 T01890156 10189 20150 56036 =
2018-10-15 18:54 METAR KLWM 152254Z 20008KT 10SM OVC011 18/15 A2980 RMK AO2 RAE2158 SLP092 P0000
                 T01830150 =
2018-10-15 17:54 METAR KLWM 152154Z 20007G16KT 10SM -RA OVC012 18/14 A2984 RMK AO2 RAB48 SLP106
                 P0000 T01830144 =
2018-10-15 17:19 METAR KLWM 152119Z 19007G16KT 170V230 10SM OVC014 18/14 A2986 RMK AO2 T01830139
                 =
2018-10-15 16:54 METAR KLWM 152054Z 19009KT 10SM OVC015 18/13 A2988 RMK AO2 SLP119 60000
                 T01830133 56043 =
2018-10-15 15:54 METAR KLWM 151954Z 20011G18KT 10SM OVC020 18/13 A2991 RMK AO2 SLP130 T01780128 =
2018-10-15 15:05 METAR KLWM 151905Z 18007KT 10SM BKN022 BKN029 OVC037 18/13 A2994 RMK AO2
                 T01780128 =
2018-10-15 14:54 METAR KLWM 151854Z VRB06KT 10SM SCT029 OVC039 17/12 A2994 RMK AO2 RAE02 SLP140
                 P0000 T01670122 =
2018-10-15 14:08 METAR KLWM 151808Z 17004KT 10SM BKN026 OVC031 15/12 A2999 RMK AO2 RAE02 PRESFR
                 P0000 T01500117 =
2018-10-15 13:54 METAR KLWM 151754Z 19003KT 9SM -RA BKN030 OVC035 15/11 A3001 RMK AO2 RAB51
                 SLP162 P0000 60000 T01500111 10150 20067 56045 =
2018-10-15 12:54 METAR KLWM 151654Z VRB05KT 10SM OVC037 14/10 A3004 RMK AO2 SLP175 T01440100 =
2018-10-15 12:26 METAR KLWM 151626Z VRB04KT 10SM SCT024 OVC032 13/09 A3006 RMK AO2 T01330094 =
2018-10-15 12:01 METAR KLWM 151601Z 11004KT 10SM OVC026 12/08 A3008 RMK AO2 PRESFR T01220083 =
2018-10-15 11:54 METAR KLWM 151554Z 00000KT 10SM OVC031 12/08 A3010 RMK AO2 RAE01 SLP192 P0000
                 T01220083 =
2018-10-15 10:54 METAR KLWM 151454Z 00000KT 7SM -RA OVC031 11/07 A3014 RMK AO2 RAE25B42 SLP207
                 P0000 60000 T01060072 58017 =
2018-10-15 09:54 METAR KLWM 151354Z 00000KT 10SM -RA BKN028 OVC033 10/06 A3016 RMK AO2 RAB51
                 SLP214 P0000 T01000061 =
2018-10-15 09:47 METAR KLWM 151347Z 00000KT 10SM OVC028 09/06 A3017 RMK AO2 T00940061 =
2018-10-15 08:54 METAR KLWM 151254Z 00000KT 10SM OVC032 08/05 A3018 RMK AO2 SLP220 T00830050 =
2018-10-15 08:39 METAR KLWM 151239Z 00000KT 10SM SCT026 OVC032 08/05 A3019 RMK AO2 T00830050 =
2018-10-15 08:01 METAR KLWM 151201Z 00000KT 10SM BKN026 07/04 A3019 RMK AO2 T00670039 =
2018-10-15 07:54 METAR KLWM 151154Z 00000KT 9SM SCT025 07/04 A3019 RMK AO2 SLP225 T00670039 10072
                 20044 58004 =
2018-10-15 06:54 METAR KLWM 151054Z 00000KT 6SM HZ CLR 06/03 A3020 RMK AO2 SLP228 T00560028 =

Support USWX by starting your Amazon purchase here.